Detall de PIREP

Printer-friendly versionPDF version

[2011/06/10 17:00:00]
Flight IATA:CT3404
Pilot Number:042
Company ICAO:CAT
Aircraft Type:B744/E
PAX:400
Departing Airport: LEBL
Destination Airport: GCLP
Alternate Airport:GCXO
Online: VATSIM
Route:LOTOS UM985 YES UM985 MGA UN869 RUSIK
Flight Level:F350
No Slew and time accel
No pause
Crash detect
Detect pilot in Cockpit between each 30 and 45 minutes
17:00 Zero fuel Weight: 574347 Lbs, Fuel Weight: 128873 Lbs
17:00 VATSIM:LEBL 101630Z 07008KT 9999 SCT010 BKN027 19/16 Q1016 NOSIG
17:00 VATSIM:GCLP 101630Z 03022KT 9999 SCT030 22/15 Q1020 NOSIG
17:00 VOICE CATALONAI
17:01 VOICE CATALONIAN
17:05 Parking Brakes off
17:13 Take-off
17:13 Take off Weight: 700884 Lbs
17:13 Wind: 072 @ 008 Knots Heading: 065
17:13 POS N41 17 19 E002 05 37
17:13 Gear Up: 190 Knots
17:13 Flaps:4 at 190 Knots
17:13 Flaps:3 at 187 Knots
17:13 Flaps:2 at 181 Knots
17:14 Flaps:1 at 187 Knots
17:15 Flaps:0 at 251 Knots
17:28 Wind:305@023 Knots Heading: 249 Ground Speed: 485 Knots Altitude 28996 ft
17:36 TOC
17:36 Fuel Weight: 108878 Lb
17:43 Wind:315@034 Knots Heading: 236 Ground Speed: 482 Knots Altitude 35075 ft
17:58 Wind:307@030 Knots Heading: 229 Ground Speed: 487 Knots Altitude 37073 ft
18:13 Wind:308@033 Knots Heading: 216 Ground Speed: 516 Knots Altitude 37060 ft
18:28 Wind:299@036 Knots Heading: 220 Ground Speed: 503 Knots Altitude 37139 ft
18:43 Wind:302@030 Knots Heading: 216 Ground Speed: 506 Knots Altitude 37162 ft
18:58 Wind:289@029 Knots Heading: 212 Ground Speed: 510 Knots Altitude 37099 ft
19:13 Wind:287@035 Knots Heading: 247 Ground Speed: 479 Knots Altitude 37040 ft
19:28 Wind:353@042 Knots Heading: 248 Ground Speed: 513 Knots Altitude 36564 ft
19:37 TOD
19:37 Fuel Weight: 61110 Lb
19:43 Wind:332@020 Knots Heading: 259 Ground Speed: 384 Knots Altitude 23599 ft
19:54 Flaps:1 at 221 Knots
19:56 Flaps:2 at 208 Knots
19:58 Wind:018@016 Knots Heading: 331 Ground Speed: 213 Knots Altitude 2700 ft
20:02 Flaps:3 at 227 Knots
20:02 Gear Down: 201 Knots
20:03 Flaps:4 at 199 Knots
20:03 Flaps:5 at 198 Knots
20:03 Flaps:6 at 177 Knots
20:03 Flaps:5 at 176 Knots
20:03 Flaps:6 at 169 Knots
20:04 TouchDown:Rate -226 ft/min Speed: 144 Knots
20:05 VATSIM:GCLP 101930Z 36015KT 9999 FEW030 22/14 Q1020 NOSIG
20:05 Land
20:05 Wind:008@015 Knots
20:05 Heading: 022
20:05 Flight Duration: 02:52
20:05 Landing Weight: 628838 Lbs
20:05 POS N27 55 51 W015 23 12
20:09 Parking brakes on
20:09 Block to Block Duration: 03:04
20:09 Final Fuel: 53754 Lbls
20:09 Spent Fuel: 75119 Lbls
20:09 Flight Length: 1182 NM
20:09 TOD Land Length: 136 NM

Exportar CSV

Powered by Drupal - Modified by Danger4k